Friendship, Ohio
Current Conditions -  °F | °C
As of 9:35 AM on Thursday 27 Nov 2014 (Local Time) from KDWU Reporting Station
Broken Clouds Broken Clouds  
Wind Chill: 31°   Ceiling: 3300
Heat Index: 36°   Visibility: 10mi
Dew Point: 25°   Wind: 6mph
Humidity: 65%   Direction: 320°NW
Pressure: 30.19"   Gusts: NA
Location:  38.7°N, 83.09°W
Report Text: KDWU 271435Z AUTO 32005KT 10SM BKN033 02/M04 A3019 RMK AO1
Loading
Personal Weather Stations






























Interactive Weather Map New forecast layout! Learn more

10-Day Weather Forecast

Advertisements
Track Severe Weather on mobile